Time;durP1;ratioP1;P1;durP2;ratioP2;P2;SDS_P1;SDS_P2;PMS_P1;PMS_P2;Temp;Humidity;BMP_temperature;BMP_pressure;BME280_temperature;BME280_humidity;BME280_pressure;Samples;Min_cycle;Max_cycle;Signal;HPM_P1;HPM_P2
2023/04/21 00:04:44;;;;;;;54.90;25.95;;;;;;;9.84;75.44;100063.91;10146508;29;20066;-59
2023/04/21 00:09:46;;;;;;;51.85;24.40;;;;;;;9.80;75.60;100073.31;10143548;29;20068;-58
2023/04/21 00:14:47;;;;;;;56.42;25.85;;;;;;;9.67;76.25;100063.97;10148181;29;20518;-59
2023/04/21 00:19:49;;;;;;;55.50;25.60;;;;;;;9.76;75.99;100058.59;10142337;29;20052;-59
2023/04/21 00:24:50;;;;;;;61.08;26.63;;;;;;;9.76;76.04;100062.09;10148442;29;20052;-59
2023/04/21 00:29:52;;;;;;;60.95;28.00;;;;;;;9.80;75.92;100067.94;10142860;29;20084;-58
2023/04/21 00:34:53;;;;;;;61.45;27.27;;;;;;;9.82;75.79;100056.00;10147241;29;20040;-59
2023/04/21 00:39:54;;;;;;;62.13;27.85;;;;;;;9.82;75.94;100064.06;10146580;29;20059;-58
2023/04/21 00:44:56;;;;;;;57.00;26.77;;;;;;;9.75;76.01;100064.94;10143015;29;20555;-59
2023/04/21 00:49:58;;;;;;;59.55;27.60;;;;;;;9.78;76.08;100045.81;10147470;29;20090;-58
2023/04/21 00:54:59;;;;;;;68.13;28.10;;;;;;;9.80;76.02;100046.47;10149720;29;20283;-58
2023/04/21 01:00:02;;;;;;;64.68;27.80;;;;;;;9.75;75.73;100038.94;10144663;29;20064;-59
2023/04/21 01:05:07;;;;;;;63.13;28.13;;;;;;;9.60;76.07;100046.09;10154150;29;20551;-58
2023/04/21 01:10:09;;;;;;;69.25;28.30;;;;;;;9.36;76.98;100049.75;10159759;29;20147;-59
2023/04/21 01:15:12;;;;;;;70.55;28.02;;;;;;;9.26;76.94;100052.63;10152217;29;20136;-60
2023/04/21 01:20:14;;;;;;;67.70;28.42;;;;;;;9.31;76.40;100048.41;10152944;29;20052;-58
2023/04/21 01:25:17;;;;;;;65.80;27.35;;;;;;;9.30;76.67;100046.75;10152863;29;20073;-60
2023/04/21 01:30:18;;;;;;;69.40;28.17;;;;;;;9.33;76.35;100049.06;10152224;29;20268;-58
2023/04/21 01:35:20;;;;;;;63.08;26.85;;;;;;;9.36;75.97;100055.09;10150464;29;20083;-58
2023/04/21 01:40:21;;;;;;;60.75;25.70;;;;;;;9.29;76.01;100044.25;10155071;29;20117;-59
2023/04/21 01:45:22;;;;;;;63.70;26.05;;;;;;;9.24;76.23;100041.25;10151715;29;20078;-60
2023/04/21 01:50:24;;;;;;;74.00;27.98;;;;;;;9.22;76.28;100040.59;10157197;29;20052;-58
2023/04/21 01:55:25;;;;;;;78.30;29.10;;;;;;;9.11;76.31;100037.28;10152350;29;20364;-59
2023/04/21 02:00:27;;;;;;;77.53;28.67;;;;;;;9.02;76.57;100045.53;10140768;29;20097;-58
2023/04/21 02:05:28;;;;;;;74.72;28.92;;;;;;;9.03;76.98;100040.00;10156245;29;20449;-59
2023/04/21 02:10:29;;;;;;;74.25;27.60;;;;;;;9.08;77.07;100040.34;10152825;29;20045;-59
2023/04/21 02:15:31;;;;;;;78.25;29.33;;;;;;;9.08;77.18;100043.00;10145828;29;20040;-59
2023/04/21 02:20:32;;;;;;;77.63;27.67;;;;;;;9.05;77.18;100046.03;10143666;29;20048;-59
2023/04/21 02:25:34;;;;;;;74.22;28.38;;;;;;;9.04;77.01;100046.19;10156429;29;20079;-59
2023/04/21 02:30:35;;;;;;;72.03;25.70;;;;;;;9.06;77.10;100037.00;10156532;29;20056;-58
2023/04/21 02:35:36;;;;;;;73.05;26.75;;;;;;;9.07;76.82;100046.69;10152039;29;20052;-59
2023/04/21 02:40:38;;;;;;;74.35;27.27;;;;;;;8.99;76.73;100048.59;10156126;29;20166;-58
2023/04/21 02:45:39;;;;;;;75.25;27.27;;;;;;;8.92;77.02;100049.25;10152267;29;20056;-58
2023/04/21 02:50:41;;;;;;;70.28;27.10;;;;;;;8.96;77.18;100051.59;10155245;29;20080;-59
2023/04/21 02:55:43;;;;;;;64.63;26.10;;;;;;;8.95;76.98;100048.09;10153606;29;20071;-58
2023/04/21 03:00:44;;;;;;;72.63;26.35;;;;;;;8.91;76.92;100055.63;10139480;29;20077;-58
2023/04/21 03:05:46;;;;;;;72.55;27.02;;;;;;;8.92;76.96;100065.31;10151650;29;20172;-58
2023/04/21 03:10:47;;;;;;;83.60;28.30;;;;;;;8.90;77.14;100058.47;10150633;29;20048;-58
2023/04/21 03:15:49;;;;;;;73.35;26.73;;;;;;;8.87;77.46;100048.94;10152857;29;20044;-59
2023/04/21 03:20:51;;;;;;;70.47;25.80;;;;;;;8.63;77.50;100043.63;10148500;29;20043;-58
2023/04/21 03:25:53;;;;;;;68.75;25.00;;;;;;;8.61;77.89;100053.69;10147709;29;20044;-58
2023/04/21 03:30:54;;;;;;;73.93;26.83;;;;;;;8.61;77.67;100059.91;10150351;29;20045;-58
2023/04/21 03:35:55;;;;;;;71.13;26.17;;;;;;;8.64;77.88;100066.75;10151389;29;20375;-58
2023/04/21 03:40:57;;;;;;;76.45;24.55;;;;;;;8.74;77.13;100056.69;10146389;29;20135;-59
2023/04/21 03:45:58;;;;;;;71.18;25.27;;;;;;;8.75;77.12;100053.00;10149391;29;20071;-58
2023/04/21 03:50:59;;;;;;;69.20;24.40;;;;;;;8.73;77.28;100055.84;10150619;29;20056;-58
2023/04/21 03:56:01;;;;;;;71.65;25.42;;;;;;;8.74;77.16;100052.16;10153230;29;20052;-59
2023/04/21 04:01:06;;;;;;;68.07;24.65;;;;;;;8.75;77.40;100039.59;10154729;29;21508;-59
2023/04/21 04:06:07;;;;;;;66.75;24.20;;;;;;;8.74;76.91;100044.09;10148188;29;20408;-59
2023/04/21 04:11:09;;;;;;;57.25;21.52;;;;;;;8.76;77.19;100046.63;10150099;29;20072;-58
2023/04/21 04:16:10;;;;;;;50.70;21.58;;;;;;;8.70;76.94;100050.81;10154097;29;20499;-58
2023/04/21 04:21:11;;;;;;;62.40;22.98;;;;;;;8.63;76.58;100044.50;10159060;29;20053;-58
2023/04/21 04:26:13;;;;;;;58.67;22.98;;;;;;;8.66;76.58;100049.50;10165721;29;20060;-59
2023/04/21 04:31:16;;;;;;;60.10;21.52;;;;;;;8.71;76.59;100059.72;10162659;29;20068;-58
2023/04/21 04:36:17;;;;;;;54.78;22.52;;;;;;;8.74;77.31;100054.81;10153388;29;20495;-58
2023/04/21 04:41:19;;;;;;;57.60;23.42;;;;;;;8.76;77.10;100049.31;10151205;29;20048;-58
2023/04/21 04:46:21;;;;;;;56.28;22.95;;;;;;;8.79;77.08;100042.75;10153557;29;20518;-58
2023/04/21 04:51:22;;;;;;;54.15;22.77;;;;;;;8.76;77.13;100051.16;10153895;29;20057;-58
2023/04/21 04:56:24;;;;;;;58.47;22.88;;;;;;;8.71;77.05;100040.97;10151997;29;20111;-58
2023/04/21 05:01:29;;;;;;;59.33;21.52;;;;;;;8.82;77.11;100029.84;10149313;29;20656;-58
2023/04/21 05:06:31;;;;;;;63.08;23.63;;;;;;;8.88;76.89;100028.31;10151238;29;20116;-57
2023/04/21 05:11:32;;;;;;;58.03;22.23;;;;;;;8.92;76.92;100041.19;10153906;29;20068;-59
2023/04/21 05:16:34;;;;;;;63.53;23.63;;;;;;;8.98;77.02;100042.34;10156494;29;20074;-59
2023/04/21 05:21:35;;;;;;;56.10;21.85;;;;;;;8.97;77.15;100050.59;10153548;29;20292;-58
2023/04/21 05:26:36;;;;;;;59.03;23.75;;;;;;;9.05;77.11;100047.88;10156207;29;20079;-58
2023/04/21 05:31:38;;;;;;;59.13;24.15;;;;;;;9.17;77.03;100051.84;10155858;29;20440;-58
2023/04/21 05:36:43;;;;;;;53.35;22.05;;;;;;;9.25;77.05;100038.41;10149958;29;20082;-59
2023/04/21 05:41:44;;;;;;;53.70;22.13;;;;;;;9.34;77.11;100028.47;10151494;29;20481;-60
2023/04/21 05:46:45;;;;;;;46.08;19.88;;;;;;;9.43;77.27;100040.00;10152314;29;20080;-58
2023/04/21 05:51:47;;;;;;;47.92;21.33;;;;;;;9.43;77.65;100045.34;10155163;29;20075;-58
2023/04/21 05:56:48;;;;;;;54.15;24.23;;;;;;;9.58;77.26;100040.91;10157027;29;20243;-58
2023/04/21 06:01:50;;;;;;;58.47;24.55;;;;;;;9.69;77.41;100040.47;10152993;29;20079;-59
2023/04/21 06:06:51;;;;;;;48.38;22.98;;;;;;;9.82;77.51;100042.59;10159106;29;20543;-61
2023/04/21 06:11:52;;;;;;;56.67;24.08;;;;;;;9.89;77.78;100046.25;10175237;29;20052;-61
2023/04/21 06:16:54;;;;;;;57.13;24.92;;;;;;;10.02;77.83;100036.75;10180090;29;20035;-61
2023/04/21 06:21:56;;;;;;;49.05;23.25;;;;;;;10.22;77.88;100040.59;10185475;29;20052;-61
2023/04/21 06:26:57;;;;;;;57.10;25.05;;;;;;;10.39;77.75;100029.75;10172584;29;20047;-61
2023/04/21 06:32:09;;;;;;;48.42;22.73;;;;;;;10.57;77.93;100030.22;10158385;29;20054;-61
2023/04/21 06:37:10;;;;;;;47.97;23.10;;;;;;;10.75;77.89;100029.84;10163788;29;20151;-61
2023/04/21 06:42:11;;;;;;;48.08;22.00;;;;;;;10.87;78.33;100038.31;10170214;29;20435;-61
2023/04/21 06:47:15;;;;;;;46.83;22.75;;;;;;;11.15;77.75;100043.84;10159741;29;20052;-61
2023/04/21 06:52:17;;;;;;;41.45;23.48;;;;;;;11.34;78.15;100042.44;10166491;29;20047;-61
2023/04/21 06:57:20;;;;;;;41.25;21.13;;;;;;;11.48;78.09;100035.34;10162767;29;20053;-61
2023/04/21 07:02:21;;;;;;;49.80;22.95;;;;;;;11.67;77.74;100042.81;10158556;29;20056;-61
2023/04/21 07:07:23;;;;;;;45.50;21.67;;;;;;;11.90;77.80;100048.03;10169524;29;20044;-62
2023/04/21 07:12:24;;;;;;;41.85;21.33;;;;;;;12.13;77.48;100041.63;10166498;29;20055;-62
2023/04/21 07:17:26;;;;;;;31.83;18.55;;;;;;;12.25;77.70;100029.28;10159537;29;20050;-65
2023/04/21 07:22:27;;;;;;;35.45;19.90;;;;;;;12.44;77.18;100035.00;10162220;29;20488;-61
2023/04/21 07:27:29;;;;;;;33.67;18.35;;;;;;;12.54;77.14;100045.47;10156486;29;20115;-61
2023/04/21 07:32:31;;;;;;;33.28;19.40;;;;;;;12.68;76.98;100041.84;10149278;29;20053;-61
2023/04/21 07:37:32;;;;;;;36.40;19.88;;;;;;;12.86;76.87;100041.34;10147699;29;20050;-61
2023/04/21 07:42:34;;;;;;;36.65;19.92;;;;;;;13.00;76.51;100039.53;10151332;29;20077;-61
2023/04/21 07:47:35;;;;;;;33.50;19.40;;;;;;;12.89;76.79;100054.41;10154941;29;20063;-62
2023/04/21 07:52:37;;;;;;;39.42;20.63;;;;;;;13.17;76.42;100040.03;10164535;29;20049;-63
2023/04/21 07:57:39;;;;;;;28.98;18.40;;;;;;;13.40;75.85;100040.56;10156174;29;20048;-64
2023/04/21 08:02:40;;;;;;;31.23;18.80;;;;;;;13.58;75.91;100042.69;10165721;29;20059;-63
2023/04/21 08:07:42;;;;;;;32.33;19.08;;;;;;;13.74;75.37;100029.88;10159095;29;20058;-62
2023/04/21 08:12:43;;;;;;;35.55;19.45;;;;;;;13.78;75.61;100028.41;10165252;29;20063;-62
2023/04/21 08:17:45;;;;;;;28.67;18.08;;;;;;;14.03;74.88;100012.44;10145779;29;20616;-62
2023/04/21 08:22:46;;;;;;;29.83;18.83;;;;;;;14.13;74.69;100014.75;10142169;29;20055;-62
2023/04/21 08:27:48;;;;;;;30.02;18.83;;;;;;;14.28;74.27;100021.59;10145646;29;20087;-62
2023/04/21 08:32:50;;;;;;;37.28;19.98;;;;;;;14.38;74.12;100023.88;10145579;29;20265;-59
2023/04/21 08:37:51;;;;;;;37.22;22.65;;;;;;;14.47;73.70;100027.19;10143578;29;20049;-59
2023/04/21 08:42:54;;;;;;;39.00;24.38;;;;;;;14.76;73.27;100022.41;10146818;29;20045;-59
2023/04/21 08:47:59;;;;;;;39.55;22.52;;;;;;;14.93;73.20;100020.06;10149280;29;20076;-60
2023/04/21 08:53:01;;;;;;;33.80;21.65;;;;;;;15.12;72.63;100007.53;10183278;29;20072;-62
2023/04/21 08:58:03;;;;;;;37.88;22.85;;;;;;;15.05;72.47;100005.66;10182514;29;20048;-62
2023/04/21 09:03:07;;;;;;;35.90;22.83;;;;;;;15.06;72.47;100028.16;10185181;29;20084;-62
2023/04/21 09:08:25;;;;;;;30.60;18.90;;;;;;;15.31;72.01;100019.31;10189107;28;20044;-62
2023/04/21 09:13:36;;;;;;;28.45;19.17;;;;;;;15.45;71.22;100027.16;10194477;29;20040;-63
2023/04/21 09:18:39;;;;;;;27.10;17.67;;;;;;;15.52;71.67;100018.16;10192656;29;20025;-63
2023/04/21 09:23:51;;;;;;;26.25;16.13;;;;;;;15.73;71.05;100019.75;10184406;29;20541;-64
2023/04/21 09:28:52;;;;;;;28.80;16.70;;;;;;;15.86;71.50;100019.66;10199137;29;20096;-63
2023/04/21 09:33:56;;;;;;;28.02;17.45;;;;;;;15.98;70.90;100025.22;10179576;29;20076;-63
2023/04/21 09:39:03;;;;;;;25.85;16.35;;;;;;;16.21;70.33;100025.47;10196298;29;20085;-63
2023/04/21 09:44:07;;;;;;;23.50;15.60;;;;;;;16.28;70.43;100032.72;10195690;29;20051;-63
2023/04/21 09:49:12;;;;;;;23.17;15.63;;;;;;;16.39;70.21;100030.09;10188816;29;20053;-64
2023/04/21 09:54:19;;;;;;;22.20;14.70;;;;;;;16.60;69.80;100018.00;10182703;29;20049;-65
2023/04/21 09:59:39;;;;;;;26.47;17.30;;;;;;;16.85;69.67;100023.41;10179071;29;20056;-62
2023/04/21 10:04:42;;;;;;;28.30;16.85;;;;;;;17.05;69.65;100014.22;10177358;29;20339;-62
2023/04/21 10:09:49;;;;;;;22.00;15.40;;;;;;;17.21;69.21;100013.59;10176883;29;20068;-62
2023/04/21 10:14:52;;;;;;;23.00;15.43;;;;;;;17.55;68.71;100010.44;10183496;29;20064;-64
2023/04/21 10:19:56;;;;;;;23.55;15.65;;;;;;;17.73;67.94;100004.13;10173223;29;20101;-63
2023/04/21 10:25:00;;;;;;;22.55;14.30;;;;;;;17.80;67.62;99985.84;10152570;29;20060;-63
2023/04/21 10:30:22;;;;;;;23.17;14.93;;;;;;;17.96;67.38;99981.66;10152864;29;20060;-63
2023/04/21 10:35:23;;;;;;;21.25;14.15;;;;;;;18.03;66.96;99983.19;10155633;29;20056;-64
2023/04/21 10:40:35;;;;;;;19.30;13.40;;;;;;;18.14;65.89;99981.53;10152933;29;20078;-62
2023/04/21 10:45:39;;;;;;;18.60;12.73;;;;;;;18.33;65.44;99971.38;10153770;29;20485;-62
2023/04/21 10:50:43;;;;;;;22.33;12.70;;;;;;;18.37;65.03;99972.56;10153665;29;20057;-63
2023/04/21 10:55:47;;;;;;;20.52;12.73;;;;;;;18.41;64.71;99968.31;10156488;29;20092;-63
2023/04/21 11:00:54;;;;;;;29.30;16.65;;;;;;;18.43;64.69;99973.53;10170109;29;20049;-62
2023/04/21 11:05:55;;;;;;;21.80;13.82;;;;;;;18.46;65.17;99975.75;10178338;29;20054;-62
2023/04/21 11:10:57;;;;;;;23.05;14.05;;;;;;;18.50;64.58;99976.09;10186058;29;20144;-62
2023/04/21 11:16:04;;;;;;;23.13;14.38;;;;;;;18.56;63.66;99969.72;10195558;29;20084;-62
2023/04/21 11:21:17;;;;;;;18.42;13.70;;;;;;;18.32;63.91;99956.13;10177856;29;20048;-62
2023/04/21 11:26:32;;;;;;;32.28;19.13;;;;;;;18.42;63.48;99958.25;10180770;29;20047;-62
2023/04/21 11:31:35;;;;;;;20.15;13.35;;;;;;;18.79;63.07;99949.78;10176652;29;20036;-63
2023/04/21 11:36:42;;;;;;;18.20;12.70;;;;;;;18.87;63.02;99954.91;10191374;29;20048;-62
2023/04/21 11:41:45;;;;;;;19.25;13.00;;;;;;;18.82;63.18;99938.47;10181692;29;20059;-63
2023/04/21 11:46:47;;;;;;;16.60;12.10;;;;;;;19.03;62.84;99940.50;10181800;29;20036;-64
2023/04/21 11:51:49;;;;;;;19.60;13.18;;;;;;;19.25;62.17;99937.13;10193119;28;20044;-64
2023/04/21 11:56:53;;;;;;;15.98;11.70;;;;;;;19.34;62.10;99932.94;10192177;29;20055;-64
2023/04/21 12:01:54;;;;;;;18.65;11.05;;;;;;;19.50;61.58;99930.50;10180422;29;20059;-63
2023/04/21 12:07:00;;;;;;;16.55;11.77;;;;;;;19.52;61.27;99926.44;10172875;29;20115;-64
2023/04/21 12:12:04;;;;;;;17.88;12.18;;;;;;;19.57;61.72;99926.56;10173113;29;20045;-63
2023/04/21 12:17:05;;;;;;;16.20;11.30;;;;;;;19.79;60.76;99921.22;10193265;29;20040;-64
2023/04/21 12:22:11;;;;;;;14.88;11.52;;;;;;;19.95;60.13;99918.75;10195470;29;20091;-64
2023/04/21 12:27:13;;;;;;;14.43;11.65;;;;;;;20.03;59.90;99907.41;10194206;29;20041;-64
2023/04/21 12:32:14;;;;;;;18.52;11.88;;;;;;;20.00;59.41;99907.91;10182371;29;20049;-63
2023/04/21 12:37:17;;;;;;;15.23;11.95;;;;;;;20.06;60.60;99897.88;10176561;29;20056;-63
2023/04/21 12:42:18;;;;;;;14.43;10.85;;;;;;;20.19;59.11;99900.28;10193887;29;20056;-63
2023/04/21 12:47:20;;;;;;;14.63;10.98;;;;;;;20.18;58.75;99895.88;10173713;29;20052;-63
2023/04/21 12:52:21;;;;;;;15.95;10.02;;;;;;;20.25;58.55;99893.00;10143101;29;20057;-64
2023/04/21 12:57:23;;;;;;;14.32;10.50;;;;;;;20.45;58.10;99889.72;10143904;29;20108;-61
2023/04/21 13:02:24;;;;;;;12.55;9.77;;;;;;;20.44;58.54;99874.41;10150864;29;20119;-60
2023/04/21 13:07:30;;;;;;;13.15;10.05;;;;;;;21.21;57.09;99873.44;10150683;29;20057;-62
2023/04/21 13:12:32;;;;;;;17.27;11.80;;;;;;;21.71;56.31;99872.25;10152624;29;20401;-61
2023/04/21 13:17:33;;;;;;;11.82;9.27;;;;;;;21.98;56.21;99877.66;10144051;29;20147;-60
2023/04/21 13:22:34;;;;;;;13.85;9.95;;;;;;;22.10;55.02;99852.81;10157468;29;20064;-60
2023/04/21 13:27:38;;;;;;;11.40;9.25;;;;;;;22.46;54.41;99844.00;10147158;29;20060;-60
2023/04/21 13:32:41;;;;;;;12.95;8.13;;;;;;;22.64;54.05;99837.22;10144922;29;20367;-59
2023/04/21 13:37:42;;;;;;;9.98;7.80;;;;;;;22.96;52.77;99826.88;10152564;29;20078;-59
2023/04/21 13:42:43;;;;;;;9.32;6.93;;;;;;;23.23;52.80;99822.31;10171556;29;20048;-61
2023/04/21 13:47:45;;;;;;;8.20;7.38;;;;;;;23.71;52.14;99814.59;10151655;29;20508;-62
2023/04/21 13:52:46;;;;;;;9.77;6.25;;;;;;;24.33;51.19;99816.13;10172591;29;20302;-61
2023/04/21 13:57:48;;;;;;;10.25;7.10;;;;;;;24.97;50.48;99790.81;10178035;29;20044;-63
2023/04/21 14:02:50;;;;;;;6.63;5.80;;;;;;;25.60;49.48;99795.56;10161292;29;20052;-62
2023/04/21 14:07:51;;;;;;;7.40;5.88;;;;;;;26.14;48.25;99782.63;10126099;29;20112;-62
2023/04/21 14:12:53;;;;;;;6.50;5.78;;;;;;;26.21;47.58;99770.13;10166565;29;20053;-60
2023/04/21 14:17:55;;;;;;;8.10;5.53;;;;;;;26.80;47.01;99747.88;10153486;29;20057;-60
2023/04/21 14:22:56;;;;;;;4.95;4.35;;;;;;;27.92;46.35;99739.59;10141992;29;20381;-60
2023/04/21 14:27:58;;;;;;;6.93;4.72;;;;;;;29.59;44.43;99734.38;10143869;29;20044;-60
2023/04/21 14:33:02;;;;;;;5.07;4.35;;;;;;;31.12;39.83;99720.66;10138307;29;20068;-61
2023/04/21 14:38:03;;;;;;;7.07;4.72;;;;;;;31.26;38.35;99719.66;10143004;29;20044;-61
2023/04/21 14:43:05;;;;;;;6.90;4.65;;;;;;;30.84;37.62;99707.13;10147470;29;20870;-61
2023/04/21 14:48:06;;;;;;;7.65;4.72;;;;;;;29.80;37.45;99702.25;10145528;29;20144;-59
2023/04/21 14:53:08;;;;;;;7.47;4.28;;;;;;;29.08;38.28;99697.75;10145034;29;20456;-58
2023/04/21 14:58:09;;;;;;;5.18;4.07;;;;;;;28.61;38.37;99688.94;10137747;29;20457;-58
2023/04/21 15:03:10;;;;;;;6.13;4.05;;;;;;;28.93;38.12;99682.34;10140803;29;20440;-58
2023/04/21 15:08:16;;;;;;;7.45;3.80;;;;;;;29.30;37.37;99673.97;10143349;29;20108;-58
2023/04/21 15:13:18;;;;;;;7.90;4.60;;;;;;;29.36;36.92;99672.69;10139894;29;20060;-58
2023/04/21 15:18:19;;;;;;;5.25;4.75;;;;;;;29.00;36.62;99668.88;10130594;29;20104;-58
2023/04/21 15:23:21;;;;;;;6.05;4.32;;;;;;;28.92;36.93;99658.56;10149040;29;20281;-60
2023/04/21 15:28:22;;;;;;;6.00;4.60;;;;;;;28.71;36.77;99649.97;10142482;29;20496;-60
2023/04/21 15:33:24;;;;;;;4.13;3.72;;;;;;;27.98;36.96;99644.44;10163927;29;20060;-63
2023/04/21 15:38:25;;;;;;;4.18;3.78;;;;;;;27.65;37.46;99640.97;10159751;29;20049;-60
2023/04/21 15:43:27;;;;;;;4.88;3.78;;;;;;;27.09;38.97;99629.88;10162104;29;20067;-60
2023/04/21 15:48:29;;;;;;;4.57;4.15;;;;;;;27.03;38.98;99628.28;10159471;29;20105;-61
2023/04/21 15:53:32;;;;;;;7.38;4.55;;;;;;;27.16;38.91;99625.88;10161153;29;20060;-60
2023/04/21 15:58:34;;;;;;;4.80;3.60;;;;;;;26.92;39.88;99632.38;10163285;29;20055;-62
2023/04/21 16:03:35;;;;;;;5.53;4.45;;;;;;;26.79;39.51;99622.94;10163312;29;20048;-60
2023/04/21 16:08:37;;;;;;;4.28;3.78;;;;;;;26.79;40.11;99608.34;10151662;29;20526;-62
2023/04/21 16:13:39;;;;;;;5.00;3.80;;;;;;;27.01;39.89;99593.88;10160634;29;20053;-60
2023/04/21 16:18:40;;;;;;;5.47;3.17;;;;;;;27.18;39.93;99585.81;10161119;29;20067;-59
2023/04/21 16:23:41;;;;;;;4.03;3.60;;;;;;;27.30;39.96;99582.59;10155652;29;20058;-60
2023/04/21 16:28:43;;;;;;;5.60;3.45;;;;;;;27.36;39.59;99558.47;10168721;29;20545;-59
2023/04/21 16:33:44;;;;;;;8.23;4.55;;;;;;;27.85;39.05;99562.38;10165066;29;20052;-60
2023/04/21 16:38:46;;;;;;;4.38;3.53;;;;;;;27.83;38.96;99564.63;10161949;29;20078;-60
2023/04/21 16:43:47;;;;;;;3.58;3.28;;;;;;;27.72;38.37;99563.22;10166856;29;20056;-60
2023/04/21 16:48:49;;;;;;;5.07;3.88;;;;;;;27.66;38.77;99552.28;10160622;29;20074;-61
2023/04/21 16:53:51;;;;;;;3.92;3.53;;;;;;;27.84;38.54;99553.28;10160385;29;20048;-60
2023/04/21 16:58:52;;;;;;;4.75;3.22;;;;;;;27.74;38.54;99556.25;10148763;29;20071;-60
2023/04/21 17:03:53;;;;;;;4.95;3.47;;;;;;;27.68;38.68;99546.44;10156115;29;20115;-60
2023/04/21 17:08:58;;;;;;;4.25;3.35;;;;;;;27.55;39.13;99559.16;10172814;29;20083;-60
2023/04/21 17:14:00;;;;;;;5.28;3.65;;;;;;;27.42;39.12;99565.50;10158818;29;20044;-60
2023/04/21 17:19:01;;;;;;;6.15;3.45;;;;;;;27.06;39.82;99563.44;10155310;29;20508;-60
2023/04/21 17:24:03;;;;;;;6.28;4.10;;;;;;;26.46;40.75;99572.44;10163765;29;20056;-60
2023/04/21 17:29:05;;;;;;;6.13;3.75;;;;;;;25.77;41.42;99578.44;10149168;29;20060;-61
2023/04/21 17:34:06;;;;;;;8.05;3.90;;;;;;;25.16;42.84;99577.22;10146157;29;20143;-60
2023/04/21 17:39:09;;;;;;;5.53;4.97;;;;;;;24.52;43.19;99582.75;10145167;29;20408;-60
2023/04/21 17:44:10;;;;;;;4.30;3.90;;;;;;;23.97;44.74;99587.53;10139310;29;20115;-60
2023/04/21 17:49:12;;;;;;;7.38;4.32;;;;;;;23.35;45.41;99595.19;10149637;29;20184;-60
2023/04/21 17:54:13;;;;;;;4.07;3.78;;;;;;;22.72;46.31;99596.38;10142765;29;20087;-59
2023/04/21 17:59:15;;;;;;;8.50;4.35;;;;;;;22.29;46.88;99593.06;10149142;29;20113;-59
2023/04/21 18:04:16;;;;;;;4.68;3.58;;;;;;;21.98;47.17;99590.28;10146918;29;20048;-59
2023/04/21 18:09:19;;;;;;;8.45;3.80;;;;;;;21.67;48.30;99581.16;10149536;29;20057;-59
2023/04/21 18:14:21;;;;;;;5.45;4.13;;;;;;;21.39;48.84;99591.41;10150984;29;20459;-60
2023/04/21 18:19:22;;;;;;;6.70;2.05;;;;;;;20.80;48.70;99618.94;10131562;29;20057;-60
2023/04/21 18:24:24;;;;;;;1.30;0.80;;;;;;;20.15;47.94;99618.84;10141563;29;20491;-60
2023/04/21 18:29:25;;;;;;;1.20;1.10;;;;;;;19.76;47.78;99620.88;10145581;29;20056;-59
2023/04/21 18:34:26;;;;;;;1.40;1.10;;;;;;;19.31;48.01;99621.91;10149214;29;20464;-58
2023/04/21 18:39:28;;;;;;;4.82;1.83;;;;;;;18.81;48.81;99624.44;10141844;29;20552;-57
2023/04/21 18:44:30;;;;;;;2.95;1.77;;;;;;;18.53;49.90;99619.06;10146620;29;20056;-63
2023/04/21 18:49:31;;;;;;;2.83;1.95;;;;;;;18.37;50.67;99617.97;10154887;29;20041;-61
2023/04/21 18:54:33;;;;;;;2.38;2.17;;;;;;;18.23;51.34;99628.34;10151914;29;20116;-60
2023/04/21 18:59:35;;;;;;;3.17;1.77;;;;;;;18.05;52.00;99629.38;10151328;29;20052;-60
2023/04/21 19:04:37;;;;;;;4.07;2.00;;;;;;;17.84;52.66;99630.88;10154625;29;20059;-59
2023/04/21 19:09:38;;;;;;;2.78;2.20;;;;;;;17.79;53.01;99628.00;10156710;29;20564;-62
2023/04/21 19:14:40;;;;;;;3.58;2.53;;;;;;;17.79;53.04;99638.88;10164307;29;20103;-60
2023/04/21 19:19:48;;;;;;;3.92;2.35;;;;;;;17.89;53.02;99632.84;10161707;29;20050;-61
2023/04/21 19:24:50;;;;;;;3.15;2.25;;;;;;;17.86;53.08;99636.88;10158323;29;20115;-60
2023/04/21 19:29:51;;;;;;;3.03;2.08;;;;;;;17.85;53.36;99627.06;10149784;29;20077;-60
2023/04/21 19:34:53;;;;;;;2.53;2.05;;;;;;;17.93;53.50;99617.69;10155991;29;20056;-63
2023/04/21 19:39:54;;;;;;;4.38;2.70;;;;;;;17.86;53.93;99622.47;10149742;29;20587;-60
2023/04/21 19:44:56;;;;;;;3.28;2.45;;;;;;;17.60;54.42;99624.63;10169414;29;20052;-61
2023/04/21 19:49:57;;;;;;;3.92;3.22;;;;;;;17.71;54.14;99628.38;10129216;29;20282;-60
2023/04/21 19:54:59;;;;;;;9.70;3.67;;;;;;;17.80;54.28;99633.19;10163705;29;20064;-61
2023/04/21 20:00:00;;;;;;;3.65;2.65;;;;;;;17.81;54.85;99643.03;10170683;29;20060;-61
2023/04/21 20:05:02;;;;;;;7.15;3.67;;;;;;;17.76;55.50;99648.34;10159011;29;20040;-61
2023/04/21 20:10:05;;;;;;;5.00;2.92;;;;;;;17.70;55.63;99637.63;10164488;29;20682;-60
2023/04/21 20:15:07;;;;;;;5.10;4.05;;;;;;;17.63;56.14;99638.59;10156834;29;20052;-62
2023/04/21 20:20:09;;;;;;;5.60;3.40;;;;;;;17.57;56.63;99644.13;10164410;29;20056;-61
2023/04/21 20:25:11;;;;;;;5.25;3.78;;;;;;;17.45;56.80;99650.41;10167191;29;20052;-59
2023/04/21 20:30:13;;;;;;;6.82;4.15;;;;;;;17.28;57.27;99654.09;10158476;29;20062;-59
2023/04/21 20:35:15;;;;;;;4.45;3.33;;;;;;;17.11;57.70;99654.81;10164662;29;20044;-60
2023/04/21 20:40:17;;;;;;;4.43;2.95;;;;;;;16.82;58.72;99713.56;10151867;29;20086;-60
2023/04/21 20:45:19;;;;;;;6.55;3.38;;;;;;;16.64;59.13;99695.44;10160253;29;20056;-60
2023/04/21 20:50:22;;;;;;;7.43;3.83;;;;;;;16.50;58.97;99694.00;10156294;29;20139;-61
2023/04/21 20:55:23;;;;;;;6.18;3.97;;;;;;;16.36;59.18;99685.22;10157920;29;20060;-63
2023/04/21 21:00:25;;;;;;;6.45;3.78;;;;;;;16.26;59.31;99688.47;10179582;29;20052;-59
2023/04/21 21:05:29;;;;;;;6.43;3.67;;;;;;;16.18;59.53;99673.34;10177458;29;20059;-61
2023/04/21 21:10:30;;;;;;;5.53;4.40;;;;;;;16.11;59.55;99667.19;10169011;29;20069;-61
2023/04/21 21:15:32;;;;;;;6.97;5.20;;;;;;;16.08;59.88;99674.97;10145865;29;20048;-59
2023/04/21 21:20:34;;;;;;;9.43;4.78;;;;;;;15.97;60.11;99676.53;10171970;29;20071;-61
2023/04/21 21:25:35;;;;;;;11.13;4.30;;;;;;;15.81;60.64;99662.56;10175701;29;20108;-62
2023/04/21 21:30:36;;;;;;;9.30;4.55;;;;;;;15.75;60.82;99654.50;10180215;29;20056;-60
2023/04/21 21:35:38;;;;;;;5.53;3.97;;;;;;;15.50;61.23;99674.38;10174599;29;20048;-61
2023/04/21 21:40:39;;;;;;;7.90;4.40;;;;;;;15.24;61.94;99684.41;10172503;29;20048;-60
2023/04/21 21:45:41;;;;;;;9.18;4.90;;;;;;;15.42;61.60;99680.91;10180846;29;20076;-63
2023/04/21 21:50:42;;;;;;;7.57;5.20;;;;;;;15.47;61.55;99678.34;10169752;29;20108;-60
2023/04/21 21:55:44;;;;;;;8.35;5.53;;;;;;;15.28;62.08;99671.25;10175832;29;20052;-61
2023/04/21 22:00:50;;;;;;;7.15;5.05;;;;;;;15.23;62.46;99677.34;10170462;29;20052;-60
2023/04/21 22:05:52;;;;;;;11.50;5.83;;;;;;;15.06;62.66;99671.66;10168308;29;20056;-60
2023/04/21 22:10:53;;;;;;;9.02;4.80;;;;;;;14.87;63.10;99670.78;10163791;29;20063;-60
2023/04/21 22:15:55;;;;;;;9.07;5.60;;;;;;;14.92;63.12;99672.81;10165416;29;20084;-60
2023/04/21 22:20:57;;;;;;;9.02;5.97;;;;;;;14.81;63.36;99681.66;10150388;29;20111;-59
2023/04/21 22:25:59;;;;;;;9.07;5.78;;;;;;;14.78;63.34;99688.34;10165068;29;20116;-60
2023/04/21 22:31:00;;;;;;;8.15;5.55;;;;;;;14.78;63.77;99684.81;10165235;29;20053;-61
2023/04/21 22:36:02;;;;;;;11.82;6.28;;;;;;;14.69;63.67;99700.47;10156676;29;20202;-59
2023/04/21 22:41:04;;;;;;;7.50;5.53;;;;;;;14.61;64.19;99692.63;10168167;29;20044;-60
2023/04/21 22:46:05;;;;;;;9.50;5.28;;;;;;;14.58;63.84;99698.50;10169071;29;20048;-61
2023/04/21 22:51:07;;;;;;;10.20;5.35;;;;;;;14.45;64.49;99700.19;10168042;29;20056;-60
2023/04/21 22:56:08;;;;;;;8.65;5.70;;;;;;;14.29;65.02;99708.81;10169371;29;20052;-61
2023/04/21 23:01:09;;;;;;;11.43;6.47;;;;;;;14.31;64.91;99700.47;10161728;29;20053;-61
2023/04/21 23:06:12;;;;;;;11.27;6.05;;;;;;;14.30;64.96;99699.66;10159935;29;20056;-59